Time;durP1;ratioP1;P1;durP2;ratioP2;P2;SDS_P1;SDS_P2;PMS_P1;PMS_P2;Temp;Humidity;BMP_temperature;BMP_pressure;BME280_temperature;BME280_humidity;BME280_pressure;Samples;Min_cycle;Max_cycle;Signal;HPM_P1;HPM_P2
2022/10/08 00:01:08;;;;;;;2.83;1.80;;;;;;;20.32;39.43;101982.28;143724;572;47008;-68
2022/10/08 00:03:36;;;;;;;3.55;1.50;;;;;;;20.25;39.14;101972.28;143724;569;47004;-69
2022/10/08 00:06:07;;;;;;;4.18;1.62;;;;;;;20.19;39.01;101975.09;143722;580;47010;-68
2022/10/08 00:08:36;;;;;;;6.03;2.05;;;;;;;20.29;39.05;101972.66;143723;609;47006;-68
2022/10/08 00:11:08;;;;;;;3.40;2.05;;;;;;;20.24;38.64;101969.78;143726;575;46009;-68
2022/10/08 00:13:42;;;;;;;3.42;1.77;;;;;;;20.18;38.98;101970.72;143724;581;47004;-68
2022/10/08 00:16:24;;;;;;;2.40;1.75;;;;;;;20.07;39.56;101969.63;143725;661;47012;-68
2022/10/08 00:18:53;;;;;;;8.90;2.40;;;;;;;19.93;39.80;101964.34;143721;601;47007;-69
2022/10/08 00:21:31;;;;;;;3.15;1.98;;;;;;;19.95;40.42;101964.09;143725;601;47008;-69
2022/10/08 00:24:00;;;;;;;3.90;1.85;;;;;;;19.93;40.27;101961.63;143725;683;47006;-68
2022/10/08 00:26:28;;;;;;;7.45;2.12;;;;;;;19.87;40.09;101961.69;143723;580;47013;-67
2022/10/08 00:29:00;;;;;;;9.85;2.50;;;;;;;19.91;40.38;101968.38;143727;693;47006;-71
2022/10/08 00:31:31;;;;;;;2.72;1.95;;;;;;;19.93;39.97;101958.09;143727;569;46937;-71
2022/10/08 00:34:00;;;;;;;4.93;1.62;;;;;;;19.94;39.39;101959.75;143729;573;47002;-68
2022/10/08 00:36:30;;;;;;;3.28;1.50;;;;;;;19.97;40.26;101968.28;143725;574;47010;-68
2022/10/08 00:39:02;;;;;;;4.40;2.03;;;;;;;19.91;39.43;101955.56;143724;593;47004;-68
2022/10/08 00:41:31;;;;;;;7.03;2.03;;;;;;;19.93;39.05;101955.34;143724;581;47008;-68
2022/10/08 00:44:02;;;;;;;3.37;1.77;;;;;;;20.00;39.67;101966.97;143726;580;47006;-68
2022/10/08 00:46:48;;;;;;;2.60;1.42;;;;;;;19.95;39.87;101958.66;143722;607;47012;-68
2022/10/08 00:49:19;;;;;;;2.92;1.80;;;;;;;19.95;39.48;101955.94;143722;588;47007;-68
2022/10/08 00:51:55;;;;;;;2.72;1.67;;;;;;;19.94;39.63;101952.37;143726;579;47008;-68
2022/10/08 00:54:22;;;;;;;2.58;1.80;;;;;;;19.96;39.85;101955.72;143724;569;47006;-68
2022/10/08 00:56:52;;;;;;;2.28;1.48;;;;;;;19.95;39.57;101948.59;143726;567;47010;-68
2022/10/08 00:59:19;;;;;;;2.97;1.60;;;;;;;19.94;39.64;101943.38;143722;570;47006;-69
2022/10/08 01:01:46;;;;;;;3.28;1.70;;;;;;;19.90;39.55;101942.19;143722;667;47004;-68
2022/10/08 01:04:14;;;;;;;4.28;1.73;;;;;;;19.88;39.55;101941.56;143728;583;47004;-68
2022/10/08 01:07:14;;;;;;;3.60;1.60;;;;;;;19.84;40.01;101939.28;143724;572;47010;-68
2022/10/08 01:10:09;;;;;;;4.10;1.55;;;;;;;19.75;40.63;101934.38;143724;631;47006;-68
2022/10/08 01:12:53;;;;;;;;;;;;;;;19.72;40.52;101930.22;143729;974;47008;-68
2022/10/08 01:15:39;;;;;;;5.40;1.95;;;;;;;19.72;39.96;101935.69;143725;568;49028;-68
2022/10/08 01:18:33;;;;;;;2.17;1.50;;;;;;;19.75;40.16;101927.03;143716;756;48007;-68
2022/10/08 01:21:14;;;;;;;4.97;2.10;;;;;;;19.70;40.12;101929.63;143724;603;47006;-68
2022/10/08 01:27:41;;;;;;;5.15;3.10;;;;;;;19.65;40.83;101924.87;143725;735;47002;-68
2022/10/08 01:30:15;;;;;;;7.95;3.90;;;;;;;19.62;40.42;101919.88;143725;572;47012;-68
2022/10/08 01:32:55;;;;;;;6.65;3.67;;;;;;;19.69;41.08;101927.94;143725;666;47006;-68
2022/10/08 01:35:28;;;;;;;3.62;2.55;;;;;;;19.66;40.49;101922.97;143724;592;47008;-68
2022/10/08 01:37:59;;;;;;;4.95;2.67;;;;;;;19.61;40.23;101917.34;143725;631;47006;-68
2022/10/08 01:40:31;;;;;;;5.15;1.98;;;;;;;19.61;40.89;101922.81;143724;584;47012;-68
2022/10/08 01:43:02;;;;;;;5.35;2.00;;;;;;;19.66;41.03;101917.50;143721;575;48004;-68
2022/10/08 01:45:43;;;;;;;4.57;1.83;;;;;;;19.65;40.91;101904.94;143726;611;47008;-68
2022/10/08 01:48:16;;;;;;;3.80;2.10;;;;;;;19.62;41.26;101906.25;143724;577;47006;-68
2022/10/08 01:50:55;;;;;;;3.03;1.80;;;;;;;19.64;41.33;101914.19;143715;579;50004;-69
2022/10/08 01:53:25;;;;;;;3.92;2.08;;;;;;;19.58;40.96;101915.94;143722;572;47006;-68
2022/10/08 01:55:54;;;;;;;3.70;1.70;;;;;;;19.60;41.43;101918.41;143726;598;47008;-68
2022/10/08 01:58:54;;;;;;;4.28;2.55;;;;;;;19.58;41.17;101912.38;143727;598;47004;-68
2022/10/08 02:02:06;;;;;;;3.70;1.75;;;;;;;19.65;41.06;101913.97;143727;585;47010;-68
2022/10/08 02:04:37;;;;;;;3.35;1.80;;;;;;;19.60;41.37;101912.97;143722;603;47006;-68
2022/10/08 02:07:10;;;;;;;6.22;2.25;;;;;;;19.57;41.48;101913.44;143725;566;47002;-68
2022/10/08 02:09:42;;;;;;;3.60;2.20;;;;;;;19.60;41.90;101912.97;143725;608;47006;-69
2022/10/08 02:12:10;;;;;;;4.50;2.15;;;;;;;19.57;41.76;101918.91;143725;618;47010;-69
2022/10/08 02:14:43;;;;;;;3.85;2.03;;;;;;;19.54;41.95;101920.16;143723;591;47006;-69
2022/10/08 02:17:53;;;;;;;5.68;1.80;;;;;;;19.52;41.64;101914.97;143722;575;47008;-68
2022/10/08 02:20:40;;;;;;;4.45;2.05;;;;;;;19.46;42.50;101917.78;143725;703;47004;-69
2022/10/08 02:23:43;;;;;;;2.03;1.40;;;;;;;19.35;42.53;101914.75;143721;568;47012;-69
2022/10/08 02:26:26;;;;;;;3.72;2.12;;;;;;;19.33;42.11;101925.03;143724;584;47006;-68
2022/10/08 02:29:01;;;;;;;5.72;2.03;;;;;;;19.24;41.92;101919.06;143724;587;47008;-69
2022/10/08 02:31:49;;;;;;;3.67;2.00;;;;;;;19.23;42.53;101920.16;143727;584;47004;-68
2022/10/08 02:34:39;;;;;;;2.60;1.83;;;;;;;19.22;42.34;101920.34;143724;595;47013;-68
2022/10/08 02:37:19;;;;;;;3.42;2.35;;;;;;;19.16;41.95;101926.69;143722;586;47006;-68
2022/10/08 02:39:55;;;;;;;5.43;2.03;;;;;;;19.13;42.28;101921.72;143726;590;47008;-68
2022/10/08 02:42:24;;;;;;;6.32;2.10;;;;;;;19.11;42.47;101916.50;143724;578;47004;-69
2022/10/08 02:45:07;;;;;;;5.05;2.05;;;;;;;19.08;42.36;101934.13;143724;590;47012;-68
2022/10/08 02:47:37;;;;;;;3.10;1.50;;;;;;;19.13;42.92;101924.44;143723;592;47007;-68
2022/10/08 02:50:10;;;;;;;5.90;2.20;;;;;;;19.06;42.15;101919.91;143726;590;47008;-68
2022/10/08 02:52:40;;;;;;;6.35;2.03;;;;;;;19.08;41.66;101919.66;143723;601;47004;-68
2022/10/08 02:55:18;;;;;;;5.50;3.05;;;;;;;19.12;41.25;101920.06;143722;568;47011;-68
2022/10/08 02:57:53;;;;;;;6.93;3.50;;;;;;;19.17;40.72;101922.91;143723;580;47006;-68
2022/10/08 03:00:20;;;;;;;8.15;3.40;;;;;;;19.22;41.23;101920.34;143725;662;47008;-68
2022/10/08 03:03:05;;;;;;;5.68;3.80;;;;;;;19.30;40.43;101924.66;143726;618;47006;-68
2022/10/08 03:05:32;;;;;;;14.07;3.50;;;;;;;19.38;40.12;101925.19;143722;572;47010;-68
2022/10/08 03:07:59;;;;;;;5.43;2.58;;;;;;;19.36;41.60;101932.75;143722;593;47006;-68
2022/10/08 03:10:29;;;;;;;5.70;2.62;;;;;;;19.32;41.61;101925.28;143724;593;47008;-68
2022/10/08 03:13:02;;;;;;;7.45;3.47;;;;;;;19.23;41.43;101931.03;143725;592;47006;-68
2022/10/08 03:15:32;;;;;;;6.37;3.00;;;;;;;19.27;40.48;101925.13;143727;609;47011;-68
2022/10/08 03:18:05;;;;;;;5.50;2.62;;;;;;;19.37;40.78;101933.59;143724;572;47006;-69
2022/10/08 03:20:32;;;;;;;10.03;2.57;;;;;;;19.46;40.46;101923.22;143726;632;47008;-68
2022/10/08 03:23:00;;;;;;;3.90;2.40;;;;;;;19.53;40.46;101915.78;143724;695;47005;-68
2022/10/08 03:25:27;;;;;;;7.85;2.40;;;;;;;19.50;41.28;101919.00;143724;567;47011;-67
2022/10/08 03:27:53;;;;;;;4.93;2.03;;;;;;;19.45;42.17;101914.19;143721;671;47006;-68
2022/10/08 03:30:20;;;;;;;8.55;3.08;;;;;;;19.41;39.07;101923.06;143724;574;47008;-68
2022/10/08 03:32:46;;;;;;;7.60;3.55;;;;;;;19.38;38.95;101914.28;143724;580;47004;-68
2022/10/08 03:35:12;;;;;;;7.65;3.20;;;;;;;19.41;40.17;101920.34;143724;680;47010;-67
2022/10/08 03:37:39;;;;;;;8.27;3.00;;;;;;;19.39;40.11;101915.97;143722;576;47006;-68
2022/10/08 03:40:06;;;;;;;8.02;3.30;;;;;;;19.40;39.81;101924.97;143724;575;47009;-68
2022/10/08 03:42:33;;;;;;;4.75;3.22;;;;;;;19.38;39.53;101924.38;143727;588;46008;-68
2022/10/08 03:45:00;;;;;;;6.55;3.28;;;;;;;19.41;39.01;101920.34;143720;566;47010;-67
2022/10/08 03:47:26;;;;;;;5.62;3.08;;;;;;;19.42;39.58;101922.00;143720;591;47007;-68
2022/10/08 03:49:53;;;;;;;8.82;3.42;;;;;;;19.43;40.01;101918.22;143723;576;47008;-68
2022/10/08 03:52:19;;;;;;;9.98;4.12;;;;;;;19.41;39.73;101917.63;143720;603;47004;-67
2022/10/08 03:54:46;;;;;;;5.55;3.10;;;;;;;19.42;40.44;101924.75;143722;595;47011;-68
2022/10/08 03:57:12;;;;;;;4.45;3.12;;;;;;;19.36;40.76;101924.56;143721;594;47006;-68
2022/10/08 03:59:38;;;;;;;9.10;3.22;;;;;;;19.34;40.95;101925.88;143720;576;47008;-68
2022/10/08 04:02:05;;;;;;;7.60;3.22;;;;;;;19.36;40.82;101923.75;143723;586;47006;-69
2022/10/08 04:04:31;;;;;;;11.05;3.30;;;;;;;19.33;40.84;101922.31;143722;594;47012;-68
2022/10/08 04:06:58;;;;;;;9.43;3.50;;;;;;;19.35;41.27;101919.38;143722;572;47006;-68
2022/10/08 04:09:24;;;;;;;3.42;2.35;;;;;;;19.32;41.64;101915.22;143721;596;47009;-68
2022/10/08 04:11:51;;;;;;;6.95;2.58;;;;;;;19.26;42.06;101912.56;143719;573;48002;-68
2022/10/08 04:14:17;;;;;;;4.97;2.70;;;;;;;19.17;41.89;101912.03;143720;575;48010;-69
2022/10/08 04:16:43;;;;;;;5.82;2.40;;;;;;;19.13;41.59;101908.13;143721;750;47006;-69
2022/10/08 04:19:13;;;;;;;5.03;2.67;;;;;;;19.13;41.93;101906.22;143722;973;47008;-68
2022/10/08 04:21:39;;;;;;;6.15;2.20;;;;;;;19.03;42.39;101905.91;143723;635;47006;-68
2022/10/08 04:24:08;;;;;;;8.02;2.75;;;;;;;18.99;42.73;101905.50;143721;579;47010;-68
2022/10/08 04:26:34;;;;;;;6.82;2.87;;;;;;;19.01;42.31;101902.59;143723;726;47006;-68
2022/10/08 04:29:00;;;;;;;5.93;3.12;;;;;;;18.99;41.09;101902.78;143718;596;48002;-68
2022/10/08 04:31:26;;;;;;;4.55;2.70;;;;;;;19.01;41.42;101902.59;143726;603;47008;-68
2022/10/08 04:33:53;;;;;;;12.80;3.22;;;;;;;19.00;42.54;101901.75;143723;588;47010;-68
2022/10/08 04:36:24;;;;;;;5.05;2.75;;;;;;;18.90;42.68;101906.84;143721;585;47006;-68
2022/10/08 04:38:53;;;;;;;10.75;3.33;;;;;;;18.85;42.42;101896.66;143723;634;47009;-68
2022/10/08 04:41:24;;;;;;;15.95;3.53;;;;;;;18.76;42.94;101901.56;143723;569;47006;-68
2022/10/08 04:43:52;;;;;;;14.30;3.72;;;;;;;18.68;42.99;101903.72;143720;784;47010;-68
2022/10/08 04:46:20;;;;;;;12.80;3.10;;;;;;;18.69;43.10;101902.69;143721;584;47006;-68
2022/10/08 04:48:49;;;;;;;10.63;3.30;;;;;;;18.65;43.86;101907.72;143722;609;47008;-68
2022/10/08 04:51:15;;;;;;;10.13;3.60;;;;;;;18.66;43.63;101895.78;143726;659;46008;-69
2022/10/08 04:53:42;;;;;;;8.45;3.70;;;;;;;18.66;44.16;101908.56;143722;581;47011;-68
2022/10/08 04:56:12;;;;;;;9.27;3.55;;;;;;;18.62;43.83;101906.28;143720;574;47006;-68
2022/10/08 04:58:38;;;;;;;9.23;4.07;;;;;;;18.56;44.19;101906.34;143721;598;47008;-68
2022/10/08 05:01:07;;;;;;;22.67;4.10;;;;;;;18.56;44.78;101909.06;143722;577;47006;-67
2022/10/08 05:03:45;;;;;;;8.73;2.92;;;;;;;18.54;44.21;101909.28;143721;573;47020;-68
2022/10/08 05:06:15;;;;;;;8.82;3.55;;;;;;;18.55;44.27;101910.12;143719;602;47006;-68
2022/10/08 05:08:42;;;;;;;5.68;3.50;;;;;;;18.56;43.79;101909.06;143722;573;47008;-68
2022/10/08 05:11:09;;;;;;;9.40;3.08;;;;;;;18.58;44.75;101913.22;143722;679;47004;-68
2022/10/08 05:13:36;;;;;;;8.65;3.45;;;;;;;18.62;44.33;101914.44;143720;642;47012;-68
2022/10/08 05:16:07;;;;;;;10.57;3.78;;;;;;;18.66;44.50;101916.72;143720;585;47006;-67
2022/10/08 05:18:34;;;;;;;10.90;3.70;;;;;;;18.68;44.42;101917.34;143721;572;47008;-68
2022/10/08 05:21:09;;;;;;;8.57;3.20;;;;;;;18.69;44.96;101927.97;143722;568;47006;-68
2022/10/08 05:23:35;;;;;;;5.70;3.58;;;;;;;18.73;45.12;101926.50;143722;578;47012;-68
2022/10/08 05:26:11;;;;;;;12.20;3.35;;;;;;;18.84;44.23;101921.34;143720;622;47010;-68
2022/10/08 05:28:38;;;;;;;5.93;2.67;;;;;;;18.91;44.61;101925.66;143723;588;47008;-68
2022/10/08 05:31:06;;;;;;;9.23;3.03;;;;;;;18.97;44.86;101934.03;143728;883;46009;-68
2022/10/08 05:33:36;;;;;;;7.47;3.30;;;;;;;19.02;44.28;101936.94;143729;595;45922;-71
2022/10/08 05:36:07;;;;;;;9.40;3.15;;;;;;;19.03;44.02;101935.88;143724;572;46006;-68
2022/10/08 05:38:35;;;;;;;9.57;3.70;;;;;;;19.08;43.66;101933.28;143722;781;46009;-68
2022/10/08 05:41:09;;;;;;;10.18;3.80;;;;;;;19.11;43.33;101935.56;143722;588;47008;-67
2022/10/08 05:43:35;;;;;;;13.38;3.87;;;;;;;19.14;43.29;101935.09;143723;881;47010;-69
2022/10/08 05:46:02;;;;;;;14.55;6.47;;;;;;;19.26;42.72;101929.75;143720;585;47006;-69
2022/10/08 05:48:29;;;;;;;13.62;5.72;;;;;;;19.35;42.81;101931.09;143722;596;47008;-68
2022/10/08 05:50:55;;;;;;;15.25;5.30;;;;;;;19.41;43.75;101942.13;143721;576;47004;-68
2022/10/08 05:53:21;;;;;;;15.55;7.07;;;;;;;19.42;40.91;101939.19;143720;701;47011;-68
2022/10/08 05:55:48;;;;;;;14.52;5.87;;;;;;;19.49;40.69;101931.75;143720;582;47004;-68
2022/10/08 05:58:14;;;;;;;9.80;5.72;;;;;;;19.58;40.67;101947.81;143723;585;47006;-68
2022/10/08 06:00:40;;;;;;;20.73;6.65;;;;;;;19.66;40.71;101939.31;143723;593;47004;-68
2022/10/08 06:03:07;;;;;;;14.02;5.22;;;;;;;19.68;40.43;101940.72;143722;590;47010;-68
2022/10/08 06:05:33;;;;;;;12.68;5.78;;;;;;;19.74;40.24;101952.63;143722;578;47008;-68
2022/10/08 06:07:59;;;;;;;13.57;5.03;;;;;;;19.78;40.69;101945.63;143721;588;47006;-68
2022/10/08 06:10:26;;;;;;;18.10;5.20;;;;;;;19.85;40.76;101946.38;143722;714;47002;-69
2022/10/08 06:12:52;;;;;;;11.43;5.37;;;;;;;19.91;40.45;101955.56;143722;585;47008;-69
2022/10/08 06:15:19;;;;;;;10.45;4.78;;;;;;;20.03;41.39;101944.72;143718;741;47004;-69
2022/10/08 06:17:45;;;;;;;10.73;4.50;;;;;;;20.15;41.91;101950.19;143723;572;47006;-69
2022/10/08 06:20:11;;;;;;;65.82;50.63;;;;;;;20.26;40.80;101949.38;143723;869;47002;-69
2022/10/08 06:22:38;;;;;;;9.57;7.28;;;;;;;20.37;39.90;101953.22;143721;605;47009;-68
2022/10/08 06:25:05;;;;;;;7.00;4.55;;;;;;;20.47;40.44;101949.09;143722;751;47004;-68
2022/10/08 06:27:31;;;;;;;4.97;2.80;;;;;;;20.55;39.97;101946.00;143720;601;47006;-67
2022/10/08 06:29:58;;;;;;;7.43;2.42;;;;;;;20.60;39.15;101946.13;143722;592;47002;-69
2022/10/08 06:32:24;;;;;;;6.20;2.58;;;;;;;20.63;38.97;101937.47;143721;579;47011;-68
2022/10/08 06:34:51;;;;;;;5.32;2.45;;;;;;;20.70;39.00;101942.81;143721;597;47004;-68
2022/10/08 06:37:17;;;;;;;6.85;4.07;;;;;;;20.74;38.62;101943.97;143723;603;47006;-69
2022/10/08 06:39:44;;;;;;;5.32;3.12;;;;;;;20.79;38.12;101946.88;143721;731;47002;-71
2022/10/08 06:42:10;;;;;;;8.73;4.37;;;;;;;20.87;38.44;101943.78;143723;601;47008;-67
2022/10/08 06:44:37;;;;;;;4.07;2.80;;;;;;;20.96;38.61;101943.41;143723;687;47004;-67
2022/10/08 06:47:03;;;;;;;4.85;2.50;;;;;;;21.01;38.37;101947.09;143724;764;46006;-69
2022/10/08 06:49:29;;;;;;;7.43;3.08;;;;;;;21.08;37.71;101936.06;143719;592;47002;-69
2022/10/08 06:51:56;;;;;;;4.00;2.35;;;;;;;21.17;37.55;101942.00;143721;610;47010;-68
2022/10/08 06:54:25;;;;;;;3.85;2.05;;;;;;;21.24;37.21;101939.94;143721;572;47004;-68
2022/10/08 06:56:51;;;;;;;7.57;2.15;;;;;;;21.28;36.95;101943.88;143721;599;47006;-67
2022/10/08 06:59:17;;;;;;;6.78;2.17;;;;;;;21.34;36.74;101950.25;143724;577;47002;-68
2022/10/08 07:01:44;;;;;;;5.55;2.33;;;;;;;21.44;36.89;101949.66;143723;596;47004;-68
2022/10/08 07:04:11;;;;;;;7.43;2.65;;;;;;;21.52;36.45;101946.53;143721;732;47004;-68
2022/10/08 07:06:37;;;;;;;5.82;2.45;;;;;;;21.57;36.33;101954.00;143724;692;47006;-68
2022/10/08 07:09:05;;;;;;;6.55;2.67;;;;;;;21.64;36.33;101944.63;143722;593;47002;-68
2022/10/08 07:11:33;;;;;;;3.42;2.75;;;;;;;21.71;36.21;101947.22;143722;585;47010;-67
2022/10/08 07:14:00;;;;;;;6.00;2.55;;;;;;;21.77;35.47;101945.41;143720;583;47004;-67
2022/10/08 07:16:27;;;;;;;6.65;3.10;;;;;;;21.80;35.71;101947.66;143724;581;47006;-68
2022/10/08 07:18:57;;;;;;;4.62;2.90;;;;;;;21.88;35.54;101946.44;143722;648;47002;-67
2022/10/08 07:21:24;;;;;;;9.48;2.42;;;;;;;21.95;35.90;101942.47;143724;593;47008;-68
2022/10/08 07:23:51;;;;;;;3.80;2.37;;;;;;;22.04;35.93;101942.91;143720;589;47004;-68
2022/10/08 07:26:23;;;;;;;6.50;2.42;;;;;;;22.11;35.91;101937.25;143722;733;47006;-67
2022/10/08 07:28:53;;;;;;;4.90;2.15;;;;;;;22.19;35.48;101942.34;143725;583;47002;-67
2022/10/08 07:31:22;;;;;;;4.60;2.28;;;;;;;22.32;35.49;101945.81;143722;600;47004;-68
2022/10/08 07:33:49;;;;;;;2.87;1.98;;;;;;;22.37;35.45;101941.25;143721;572;47004;-68
2022/10/08 07:36:18;;;;;;;6.87;2.30;;;;;;;22.42;35.45;101943.28;143723;567;47006;-68
2022/10/08 07:38:45;;;;;;;5.68;1.95;;;;;;;22.49;35.12;101946.69;143722;600;47002;-66
2022/10/08 07:41:12;;;;;;;4.93;2.33;;;;;;;22.55;34.81;101939.38;143724;572;46010;-68
2022/10/08 07:43:42;;;;;;;7.15;3.45;;;;;;;22.67;35.26;101940.16;143722;603;47002;-67
2022/10/08 07:46:11;;;;;;;2.92;1.62;;;;;;;22.75;34.29;101938.87;143725;584;46006;-68
2022/10/08 07:48:38;;;;;;;3.40;2.15;;;;;;;22.82;34.10;101947.75;143723;703;47004;-68
2022/10/08 07:51:16;;;;;;;4.97;1.98;;;;;;;22.93;34.60;101939.69;143717;589;51002;-68
2022/10/08 07:53:43;;;;;;;7.22;2.65;;;;;;;23.09;35.08;101943.44;143722;707;47004;-68
2022/10/08 07:56:11;;;;;;;8.70;3.55;;;;;;;23.11;33.00;101946.78;143719;576;47010;-68
2022/10/08 07:58:38;;;;;;;10.60;3.80;;;;;;;23.08;32.63;101941.78;143726;706;46010;-68
2022/10/08 08:01:06;;;;;;;12.35;5.25;;;;;;;23.14;33.27;101940.78;143724;576;47002;-68
2022/10/08 08:03:33;;;;;;;10.18;4.40;;;;;;;23.17;32.26;101935.63;143718;590;47004;-68
2022/10/08 08:06:04;;;;;;;12.02;3.97;;;;;;;23.18;32.46;101941.94;143723;592;47006;-68
2022/10/08 08:08:33;;;;;;;16.75;4.65;;;;;;;23.22;32.97;101931.31;143721;591;47002;-68
2022/10/08 08:11:01;;;;;;;5.97;4.00;;;;;;;23.30;31.93;101930.88;143725;581;47008;-67
2022/10/08 08:13:29;;;;;;;7.87;3.72;;;;;;;23.37;32.19;101925.22;143720;582;47004;-68
2022/10/08 08:16:00;;;;;;;10.68;3.58;;;;;;;23.45;32.29;101931.06;143724;567;47000;-69
2022/10/08 08:18:31;;;;;;;10.82;4.00;;;;;;;23.59;32.20;101926.00;143722;586;47002;-69
2022/10/08 08:21:05;;;;;;;13.27;4.00;;;;;;;23.73;32.03;101933.84;143724;598;47008;-69
2022/10/08 08:23:33;;;;;;;10.35;3.72;;;;;;;23.77;31.09;101940.44;143722;689;47004;-68
2022/10/08 08:26:08;;;;;;;13.85;4.53;;;;;;;23.85;31.34;101937.25;143722;580;47006;-68
2022/10/08 08:28:35;;;;;;;8.70;4.00;;;;;;;23.97;31.91;101945.37;143725;609;47003;-68
2022/10/08 08:31:28;;;;;;;12.45;4.93;;;;;;;24.07;31.82;101939.97;143720;572;47011;-68
2022/10/08 08:33:56;;;;;;;7.20;2.87;;;;;;;24.15;31.17;101943.34;143750;597;46004;-68
2022/10/08 08:36:28;;;;;;;11.82;3.95;;;;;;;24.21;31.38;101939.53;143751;693;46006;-69
2022/10/08 08:38:54;;;;;;;10.15;3.28;;;;;;;24.27;30.57;101938.50;143754;570;46004;-68
2022/10/08 08:42:18;;;;;;;8.38;3.17;;;;;;;24.38;30.52;101934.72;143751;663;46010;-69
2022/10/08 08:44:48;;;;;;;6.95;3.47;;;;;;;24.48;30.27;101942.22;143747;660;46926;-67
2022/10/08 08:47:30;;;;;;;9.73;3.15;;;;;;;24.56;29.93;101937.34;143751;589;46000;-68
2022/10/08 08:50:35;;;;;;;7.82;2.70;;;;;;;24.66;30.24;101941.00;143755;576;46004;-68
2022/10/08 08:53:03;;;;;;;8.75;3.40;;;;;;;24.80;30.02;101935.06;143752;614;46922;-68
2022/10/08 08:55:37;;;;;;;5.65;3.20;;;;;;;24.91;30.20;101925.78;143751;576;46004;-67
2022/10/08 08:58:41;;;;;;;8.27;3.47;;;;;;;25.02;29.89;101920.34;143752;640;45006;-68
2022/10/08 09:01:30;;;;;;;9.27;4.25;;;;;;;25.15;30.20;101930.03;143753;644;46004;-68
2022/10/08 09:04:04;;;;;;;10.98;3.12;;;;;;;25.21;30.13;101926.19;143753;604;45921;-68
2022/10/08 09:06:33;;;;;;;9.07;3.80;;;;;;;25.34;30.09;101920.19;143750;665;46004;-68
2022/10/08 09:09:06;;;;;;;9.73;2.80;;;;;;;25.48;29.13;101917.78;143754;677;45924;-68
2022/10/08 09:11:33;;;;;;;4.95;2.87;;;;;;;25.55;29.46;101921.13;143753;597;46002;-68
2022/10/08 09:14:34;;;;;;;7.47;3.12;;;;;;;25.68;28.92;101921.69;143750;574;46010;-69
2022/10/08 09:17:13;;;;;;;5.40;3.05;;;;;;;25.84;29.39;101909.62;143748;576;46004;-68
2022/10/08 09:19:40;;;;;;;7.15;3.70;;;;;;;25.94;29.36;101908.00;143751;597;46006;-69
2022/10/08 09:22:28;;;;;;;7.22;2.15;;;;;;;26.11;29.38;101902.19;143755;586;45006;-68
2022/10/08 09:25:03;;;;;;;7.72;2.85;;;;;;;26.39;28.89;101900.00;143752;572;45008;-69
2022/10/08 09:28:04;;;;;;;6.12;2.67;;;;;;;26.50;28.21;101898.91;143750;620;46004;-69
2022/10/08 09:30:43;;;;;;;2.45;1.60;;;;;;;26.69;27.51;101901.06;143752;614;45923;-68
2022/10/08 09:33:30;;;;;;;5.95;2.47;;;;;;;26.78;28.19;101891.09;143729;580;47002;-69
2022/10/08 09:35:58;;;;;;;3.55;1.98;;;;;;;26.79;28.81;101887.25;143722;589;47008;-68
2022/10/08 09:38:27;;;;;;;7.30;2.47;;;;;;;26.75;28.18;101887.00;143719;617;47006;-70
2022/10/08 09:41:27;;;;;;;5.28;3.00;;;;;;;26.80;28.57;101882.59;143725;566;47008;-68
2022/10/08 09:44:14;;;;;;;3.80;2.85;;;;;;;26.76;28.76;101876.78;143726;603;47006;-69
2022/10/08 09:46:41;;;;;;;9.13;2.78;;;;;;;26.71;29.64;101874.88;143725;573;47010;-69
2022/10/08 09:49:31;;;;;;;5.95;3.10;;;;;;;26.63;28.98;101872.72;143720;603;47006;-69
2022/10/08 09:52:03;;;;;;;5.05;3.00;;;;;;;26.72;28.42;101870.19;143722;646;47009;-70
2022/10/08 09:54:36;;;;;;;7.10;2.72;;;;;;;26.81;29.03;101862.22;143724;662;47006;-69
2022/10/08 09:57:03;;;;;;;5.37;3.67;;;;;;;26.87;28.84;101856.41;143725;589;47010;-70
2022/10/08 09:59:35;;;;;;;6.78;2.28;;;;;;;26.83;30.19;101868.28;143722;644;47008;-69
2022/10/08 10:02:06;;;;;;;8.93;3.35;;;;;;;26.60;30.73;101859.47;143724;601;47008;-69
2022/10/08 10:04:39;;;;;;;5.68;1.83;;;;;;;26.60;29.50;101856.72;143724;598;47006;-68
2022/10/08 10:07:06;;;;;;;4.57;2.10;;;;;;;26.65;29.79;101856.72;143721;600;47923;-71
2022/10/08 10:10:00;;;;;;;7.18;3.20;;;;;;;26.73;29.15;101849.81;143721;585;47006;-69
2022/10/08 10:12:31;;;;;;;8.98;5.28;;;;;;;26.78;29.34;101847.84;143721;627;47924;-68
2022/10/08 10:15:18;;;;;;;5.00;4.50;;;;;;;26.89;29.07;101845.06;143724;608;47006;-69
2022/10/08 10:18:13;;;;;;;5.57;3.90;;;;;;;26.96;29.54;101851.13;143721;597;47012;-69
2022/10/08 10:20:40;;;;;;;;;;;;;;;27.01;29.40;101834.53;143725;980;47007;-68
2022/10/08 10:23:36;;;;;;;2.97;2.05;;;;;;;27.07;29.81;101844.44;143728;650;47010;-68
2022/10/08 10:26:32;;;;;;;7.20;2.15;;;;;;;27.03;29.47;101837.84;143724;569;47006;-68
2022/10/08 10:29:19;;;;;;;5.25;2.30;;;;;;;27.07;30.43;101829.84;143722;644;47011;-71
2022/10/08 10:32:11;;;;;;;3.78;2.42;;;;;;;27.07;28.95;101824.31;143721;595;47006;-68
2022/10/08 10:34:43;;;;;;;5.37;2.90;;;;;;;27.15;29.89;101822.91;143724;582;46008;-69
2022/10/08 10:37:19;;;;;;;7.55;2.90;;;;;;;27.07;29.54;101816.87;143725;617;47007;-69
2022/10/08 10:40:12;;;;;;;3.15;2.35;;;;;;;27.14;29.50;101818.50;143724;578;47010;-69
2022/10/08 10:43:17;;;;;;;4.82;2.17;;;;;;;27.16;28.24;101810.75;143722;615;47006;-70
2022/10/08 10:45:53;;;;;;;5.80;2.53;;;;;;;27.28;28.42;101800.19;143722;591;47008;-69
2022/10/08 10:48:19;;;;;;;3.40;2.67;;;;;;;27.30;28.16;101800.75;143722;566;47006;-70
2022/10/08 10:51:36;;;;;;;5.28;3.80;;;;;;;27.18;27.81;101787.28;143965;57;49031;-69
2022/10/08 10:54:43;;;;;;;4.03;2.28;;;;;;;27.16;28.09;101780.44;143718;661;47006;-69
2022/10/08 10:57:45;;;;;;;7.07;2.97;;;;;;;27.20;28.33;101781.47;143715;659;49002;-69
2022/10/08 11:00:29;;;;;;;7.90;4.87;;;;;;;27.18;27.49;101780.97;143728;579;46008;-69
2022/10/08 11:03:24;;;;;;;9.80;5.95;;;;;;;27.15;29.14;101771.31;143727;715;46010;-69
2022/10/08 11:06:06;;;;;;;3.30;2.25;;;;;;;27.17;28.39;101774.62;143719;599;47006;-69
2022/10/08 11:09:02;;;;;;;7.93;4.60;;;;;;;27.08;29.22;101766.13;143719;693;47008;-67
2022/10/08 11:11:52;;;;;;;3.78;2.42;;;;;;;27.00;28.54;101763.16;143723;578;47008;-69
2022/10/08 11:14:46;;;;;;;5.10;2.70;;;;;;;27.00;28.55;101749.34;143722;618;46011;-70
2022/10/08 11:17:35;;;;;;;;;;;;;;;27.04;28.55;101754.00;143725;982;47006;-70
2022/10/08 11:20:27;;;;;;;7.85;4.97;;;;;;;27.05;28.44;101754.84;143730;650;47010;-72
2022/10/08 11:23:34;;;;;;;4.78;2.30;;;;;;;27.11;28.40;101750.94;143723;602;48008;-73
2022/10/08 11:26:26;;;;;;;8.27;4.95;;;;;;;27.07;28.84;101747.94;143715;568;51006;-70
2022/10/08 11:29:16;;;;;;;7.82;3.87;;;;;;;27.15;27.95;101740.97;143724;576;48006;-69
2022/10/08 11:31:47;;;;;;;5.18;2.03;;;;;;;27.17;28.39;101740.72;143718;594;47924;-69
2022/10/08 11:34:32;;;;;;;3.20;2.33;;;;;;;27.02;28.42;101736.13;143724;664;47006;-68
2022/10/08 11:37:27;;;;;;;3.85;2.03;;;;;;;26.91;29.36;101738.94;143720;636;49945;-69
2022/10/08 11:40:29;;;;;;;8.27;5.72;;;;;;;26.85;30.08;101725.47;143723;589;49007;-70
2022/10/08 11:43:27;;;;;;;9.45;5.53;;;;;;;26.87;29.23;101717.72;143722;600;47009;-69
2022/10/08 11:46:18;;;;;;;6.25;5.45;;;;;;;26.90;29.74;101711.66;143724;641;47006;-70
2022/10/08 11:48:46;;;;;;;4.60;4.10;;;;;;;26.92;29.92;101714.94;143724;566;47012;-70
2022/10/08 11:51:29;;;;;;;6.55;5.55;;;;;;;26.87;29.90;101710.31;143720;578;48016;-70
2022/10/08 11:54:15;;;;;;;2.60;1.92;;;;;;;26.72;29.96;101702.91;143727;580;47008;-69
2022/10/08 11:56:47;;;;;;;5.30;1.85;;;;;;;26.60;29.47;101710.69;143723;569;48008;-70
2022/10/08 12:00:02;;;;;;;4.93;2.92;;;;;;;26.53;30.32;101705.50;143724;699;47010;-70
2022/10/08 12:02:41;;;;;;;5.62;4.03;;;;;;;26.62;29.80;101709.28;143716;647;49997;-70